createdAt,value
2018-04-06T00:02:02.491Z,98709.64
2018-04-06T00:04:30.749Z,98715.23
2018-04-06T00:06:59.788Z,98713.99
2018-04-06T00:09:28.071Z,98708.84
2018-04-06T00:11:57.093Z,98706.98
2018-04-06T00:14:25.405Z,98707.02
2018-04-06T00:16:54.421Z,98717.07
2018-04-06T00:19:22.673Z,98707.63
2018-04-06T00:21:50.962Z,98709.56
2018-04-06T00:24:19.216Z,98717.78
2018-04-06T00:26:48.238Z,98707.95
2018-04-06T00:29:16.512Z,98707.98
2018-04-06T00:31:44.773Z,98710.44
2018-04-06T00:34:13.027Z,98715.95
2018-04-06T00:36:41.301Z,98710.08
2018-04-06T00:39:10.329Z,98712.45
2018-04-06T00:41:38.610Z,98712.60
2018-04-06T00:44:06.882Z,98712.48
2018-04-06T00:46:35.143Z,98711.09
2018-04-06T00:49:03.417Z,98714.34
2018-04-06T00:51:32.469Z,98708.97
2018-04-06T00:54:00.741Z,98716.02
2018-04-06T00:56:29.003Z,98707.48
2018-04-06T00:58:57.276Z,98707.76
2018-04-06T01:01:25.597Z,98697.30
2018-04-06T01:03:54.633Z,98701.08
2018-04-06T01:06:22.888Z,98701.91
2018-04-06T01:08:51.168Z,98701.55
2018-04-06T01:11:19.437Z,98700.53
2018-04-06T01:13:48.552Z,98699.61
2018-04-06T01:16:16.828Z,98701.81
2018-04-06T01:18:45.110Z,98705.09
2018-04-06T01:21:13.355Z,98708.65
2018-04-06T01:23:42.417Z,98707.41
2018-04-06T01:26:10.681Z,98710.97
2018-04-06T01:28:38.933Z,98708.84
2018-04-06T01:31:07.408Z,98712.52
2018-04-06T01:33:35.709Z,98719.30
2018-04-06T01:36:04.012Z,98717.56
2018-04-06T01:38:33.136Z,98714.59
2018-04-06T01:41:01.500Z,98719.00
2018-04-06T01:43:29.873Z,98717.41
2018-04-06T01:45:58.968Z,98720.02
2018-04-06T01:48:28.080Z,98710.63
2018-04-06T01:50:57.195Z,98708.27
2018-04-06T01:53:25.484Z,98714.91
2018-04-06T01:55:53.754Z,98710.34
2018-04-06T01:58:22.040Z,98714.89
2018-04-06T02:00:50.312Z,98706.52
2018-04-06T02:03:18.588Z,98707.34
2018-04-06T02:05:46.888Z,98700.83
2018-04-06T02:08:15.191Z,98713.33
2018-04-06T02:10:43.465Z,98706.59
2018-04-06T02:13:11.756Z,98711.83
2018-04-06T02:15:40.779Z,98706.70
2018-04-06T02:18:09.057Z,98700.00
2018-04-06T02:20:37.338Z,98698.72
2018-04-06T02:23:05.626Z,98696.45
2018-04-06T02:25:34.025Z,98700.67
2018-04-06T02:28:02.301Z,98708.30
2018-04-06T02:30:30.568Z,98703.81
2018-04-06T02:32:58.836Z,98703.60
2018-04-06T02:35:27.122Z,98700.77
2018-04-06T02:37:55.383Z,98708.33
2018-04-06T02:40:23.641Z,98707.62
2018-04-06T02:42:51.907Z,98705.64
2018-04-06T02:45:20.168Z,98707.13
2018-04-06T02:47:49.195Z,98706.44
2018-04-06T02:50:17.472Z,98721.68
2018-04-06T02:52:45.729Z,98722.22
2018-04-06T02:55:13.989Z,98719.51
2018-04-06T02:57:43.039Z,98717.84
2018-04-06T03:00:11.305Z,98718.23
2018-04-06T03:02:39.573Z,98715.20
2018-04-06T03:05:07.875Z,98716.73
2018-04-06T03:07:36.152Z,98720.60
2018-04-06T03:10:04.425Z,98725.73
2018-04-06T03:12:32.732Z,98721.41
2018-04-06T03:15:01.776Z,98730.67
2018-04-06T03:17:30.049Z,98731.05
2018-04-06T03:19:58.335Z,98732.18
2018-04-06T03:22:26.602Z,98732.70
2018-04-06T03:24:54.905Z,98729.69
2018-04-06T03:27:23.181Z,98724.80
2018-04-06T03:29:51.461Z,98725.05
2018-04-06T03:32:19.769Z,98730.39
2018-04-06T03:34:48.813Z,98728.94
2018-04-06T03:37:17.108Z,98730.22
2018-04-06T03:39:45.377Z,98724.77
2018-04-06T03:42:13.655Z,98727.56
2018-04-06T03:44:41.936Z,98728.13
2018-04-06T03:47:10.212Z,98726.72
2018-04-06T03:49:38.480Z,98722.23
2018-04-06T03:52:06.757Z,98714.73
2018-04-06T03:54:35.037Z,98714.18
2018-04-06T03:57:03.322Z,98724.90
2018-04-06T03:59:31.598Z,98724.75
2018-04-06T04:01:59.864Z,98726.74
2018-04-06T04:04:29.158Z,98722.88
2018-04-06T04:06:57.424Z,98717.72
2018-04-06T04:09:25.698Z,98715.45
2018-04-06T04:11:54.000Z,98724.56
2018-04-06T04:14:22.261Z,98719.66
2018-04-06T04:16:50.524Z,98721.11
2018-04-06T04:19:18.811Z,98720.16
2018-04-06T04:21:47.081Z,98721.92
2018-04-06T04:24:15.346Z,98731.72
2018-04-06T04:26:43.650Z,98723.66
2018-04-06T04:29:11.930Z,98720.96
2018-04-06T04:31:40.208Z,98712.91
2018-04-06T04:34:08.498Z,98720.25
2018-04-06T04:36:36.765Z,98722.59
2018-04-06T04:39:05.941Z,98721.23
2018-04-06T04:41:34.232Z,98721.52
2018-04-06T04:44:02.498Z,98725.70
2018-04-06T04:46:30.776Z,98720.25
2018-04-06T04:48:59.061Z,98733.23
2018-04-06T04:51:27.327Z,98738.36
2018-04-06T04:53:55.608Z,98731.89
2018-04-06T04:56:23.877Z,98727.67
2018-04-06T04:58:52.160Z,98731.65
2018-04-06T05:01:20.449Z,98724.38
2018-04-06T05:03:48.792Z,98731.33
2018-04-06T05:06:17.157Z,98727.30
2018-04-06T05:08:45.506Z,98742.94
2018-04-06T05:11:14.633Z,98743.91
2018-04-06T05:13:42.927Z,98744.02
2018-04-06T05:16:11.193Z,98737.94
2018-04-06T05:18:39.456Z,98745.67
2018-04-06T05:21:07.769Z,98752.20
2018-04-06T05:23:36.040Z,98756.89
2018-04-06T05:26:04.348Z,98757.94
2018-04-06T05:28:32.624Z,98755.25
2018-04-06T05:31:00.914Z,98753.33
2018-04-06T05:33:29.965Z,98758.72
2018-04-06T05:35:58.228Z,98758.50
2018-04-06T05:38:26.505Z,98752.50
2018-04-06T05:40:54.785Z,98757.82
2018-04-06T05:43:23.041Z,98756.49
2018-04-06T05:45:51.323Z,98753.84
2018-04-06T05:48:19.580Z,98756.23
2018-04-06T05:50:48.605Z,98757.77
2018-04-06T05:53:16.880Z,98760.92
2018-04-06T05:55:45.161Z,98753.27
2018-04-06T05:58:13.432Z,98759.31
2018-04-06T06:00:41.706Z,98764.99
2018-04-06T06:03:09.957Z,98760.48
2018-04-06T06:05:38.219Z,98765.86
2018-04-06T06:08:07.249Z,98765.27
2018-04-06T06:10:35.500Z,98770.98
2018-04-06T06:13:03.779Z,98767.75
2018-04-06T06:15:32.045Z,98770.10
2018-04-06T06:18:01.076Z,98762.13
2018-04-06T06:20:29.348Z,98764.56
2018-04-06T06:22:57.637Z,98767.80
2018-04-06T06:25:25.890Z,98779.88
2018-04-06T06:27:54.176Z,98777.85
2018-04-06T06:30:22.442Z,98776.45
2018-04-06T06:32:50.744Z,98776.64
2018-04-06T06:35:19.008Z,98777.81
2018-04-06T06:37:47.278Z,98776.36
2018-04-06T06:40:15.557Z,98767.27
2018-04-06T06:42:43.810Z,98773.73
2018-04-06T06:45:12.876Z,98777.09
2018-04-06T06:47:41.148Z,98777.56
2018-04-06T06:50:10.916Z,98783.52
2018-04-06T06:52:39.187Z,98782.04
2018-04-06T06:55:07.445Z,98772.16
2018-04-06T06:57:36.517Z,98773.90
2018-04-06T07:00:04.774Z,98772.48
2018-04-06T07:02:33.024Z,98774.09
2018-04-06T07:05:01.302Z,98775.37
2018-04-06T07:07:29.572Z,98781.89
2018-04-06T07:09:57.833Z,98779.77
2018-04-06T07:12:26.333Z,98779.50
2018-04-06T07:14:54.661Z,98783.14
2018-04-06T07:17:23.680Z,98775.69
2018-04-06T07:19:51.948Z,98776.75
2018-04-06T07:22:20.202Z,98777.56
2018-04-06T07:24:49.293Z,98767.44
2018-04-06T07:27:18.319Z,98772.30
2018-04-06T07:29:46.605Z,98762.75
2018-04-06T07:32:14.881Z,98767.64
2018-04-06T07:34:43.145Z,98764.36
2018-04-06T07:37:11.412Z,98757.04
2018-04-06T07:39:41.688Z,98760.72
2018-04-06T07:42:09.950Z,98759.81
2018-04-06T07:44:38.239Z,98752.31
2018-04-06T07:47:06.516Z,98757.38
2018-04-06T07:49:34.771Z,98753.66
2018-04-06T07:52:03.033Z,98758.36
2018-04-06T07:54:31.320Z,98755.73
2018-04-06T07:56:59.628Z,98748.38
2018-04-06T07:59:27.846Z,98747.20
2018-04-06T08:01:56.885Z,98745.96
2018-04-06T08:04:25.140Z,98732.42
2018-04-06T08:06:53.405Z,98726.23
2018-04-06T08:09:21.687Z,98726.47
2018-04-06T08:11:49.956Z,98724.96
2018-04-06T08:14:18.212Z,98715.42
2018-04-06T08:16:47.336Z,98717.59
2018-04-06T08:19:15.580Z,98717.17
2018-04-06T08:21:44.612Z,98707.33
2018-04-06T08:24:12.948Z,98707.84
2018-04-06T08:26:41.976Z,98706.05
2018-04-06T08:29:10.226Z,98706.53
2018-04-06T08:31:39.350Z,98696.89
2018-04-06T08:34:07.596Z,98699.94
2018-04-06T08:36:36.623Z,98696.24
2018-04-06T08:39:04.894Z,98693.07
2018-04-06T08:41:33.153Z,98695.77
2018-04-06T08:44:01.459Z,98687.61
2018-04-06T08:46:29.717Z,98681.91
2018-04-06T08:48:57.979Z,98684.03
2018-04-06T08:51:26.256Z,98680.86
2018-04-06T08:53:54.508Z,98677.22
2018-04-06T08:56:22.782Z,98671.61
2018-04-06T08:58:51.026Z,98663.94
2018-04-06T09:01:19.285Z,98664.89
2018-04-06T09:03:47.552Z,98651.13
2018-04-06T09:06:15.826Z,98656.45
2018-04-06T09:08:44.080Z,98657.87
2018-04-06T09:11:13.126Z,98656.22
2018-04-06T09:13:41.377Z,98658.52
2018-04-06T09:16:09.640Z,98656.48
2018-04-06T09:18:37.904Z,98646.64
2018-04-06T09:21:06.936Z,98648.25
2018-04-06T09:23:35.184Z,98638.16
2018-04-06T09:26:03.465Z,98634.50
2018-04-06T09:28:31.717Z,98647.71
2018-04-06T09:31:00.738Z,98631.52
2018-04-06T09:33:29.047Z,98637.41
2018-04-06T09:35:57.309Z,98634.89
2018-04-06T09:38:25.570Z,98627.04
2018-04-06T09:40:53.844Z,98638.43
2018-04-06T09:43:22.089Z,98632.22
2018-04-06T09:45:51.156Z,98628.53
2018-04-06T09:48:19.433Z,98624.78
2018-04-06T09:50:47.701Z,98624.95
2018-04-06T09:53:15.973Z,98613.81
2018-04-06T09:55:44.257Z,98619.42
2018-04-06T09:58:12.548Z,98614.80
2018-04-06T10:00:40.813Z,98617.41
2018-04-06T10:03:09.103Z,98612.72
2018-04-06T10:05:38.893Z,98619.16
2018-04-06T10:08:07.184Z,98615.30
2018-04-06T10:10:35.465Z,98610.24
2018-04-06T10:13:03.726Z,98607.27
2018-04-06T10:15:32.001Z,98600.86
2018-04-06T10:18:00.315Z,98605.13
2018-04-06T10:20:29.345Z,98588.89
2018-04-06T10:22:57.617Z,98597.44
2018-04-06T10:25:25.901Z,98587.60
2018-04-06T10:27:54.160Z,98585.01
2018-04-06T10:30:22.424Z,98583.24
2018-04-06T10:32:50.700Z,98581.94
2018-04-06T10:35:18.971Z,98578.11
2018-04-06T10:37:48.040Z,98570.28
2018-04-06T10:40:17.828Z,98564.30
2018-04-06T10:42:46.092Z,98569.94
2018-04-06T10:45:14.379Z,98570.56
2018-04-06T10:47:42.640Z,98561.64
2018-04-06T10:50:10.902Z,98552.17
2018-04-06T10:52:39.177Z,98550.47
2018-04-06T10:55:07.445Z,98542.14
2018-04-06T10:57:35.779Z,98540.77
2018-04-06T11:00:04.041Z,98541.90
2018-04-06T11:02:32.300Z,98537.22
2018-04-06T11:05:00.584Z,98534.50
2018-04-06T11:07:28.852Z,98530.23
2018-04-06T11:09:57.131Z,98529.39
2018-04-06T11:12:25.392Z,98520.57
2018-04-06T11:14:53.676Z,98525.03
2018-04-06T11:17:21.963Z,98516.28
2018-04-06T11:19:50.232Z,98514.40
2018-04-06T11:22:18.509Z,98521.61
2018-04-06T11:24:46.780Z,98509.57
2018-04-06T11:27:15.088Z,98514.50
2018-04-06T11:29:43.342Z,98507.34
2018-04-06T11:32:11.620Z,98499.47
2018-04-06T11:34:39.914Z,98502.31
2018-04-06T11:37:08.196Z,98505.60
2018-04-06T11:39:36.456Z,98500.11
2018-04-06T11:42:04.733Z,98492.91
2018-04-06T11:44:33.014Z,98496.81
2018-04-06T11:47:01.273Z,98490.88
2018-04-06T11:49:29.556Z,98484.59
2018-04-06T11:51:57.836Z,98481.60
2018-04-06T11:54:26.113Z,98480.78
2018-04-06T11:56:54.397Z,98471.56
2018-04-06T11:59:22.665Z,98468.66
2018-04-06T12:01:50.944Z,98476.91
2018-04-06T12:04:19.216Z,98468.87
2018-04-06T12:06:47.528Z,98464.23
2018-04-06T12:09:16.557Z,98465.24
2018-04-06T12:11:44.820Z,98462.65
2018-04-06T12:14:13.096Z,98455.00
2018-04-06T12:16:41.372Z,98452.44
2018-04-06T12:19:09.660Z,98455.99
2018-04-06T12:21:37.920Z,98447.03
2018-04-06T12:24:06.188Z,98447.58
2018-04-06T12:26:35.237Z,98440.52
2018-04-06T12:29:03.503Z,98437.93
2018-04-06T12:31:31.792Z,98429.35
2018-04-06T12:34:00.059Z,98426.33
2018-04-06T12:36:28.416Z,98422.16
2018-04-06T12:38:56.694Z,98415.76
2018-04-06T12:41:24.980Z,98418.48
2018-04-06T12:43:53.257Z,98413.94
2018-04-06T12:46:21.532Z,98412.34
2018-04-06T12:48:49.864Z,98398.43
2018-04-06T12:51:18.088Z,98403.55
2018-04-06T12:53:46.361Z,98404.34
2018-04-06T12:56:14.679Z,98401.64
2018-04-06T12:58:42.944Z,98404.09
2018-04-06T13:01:11.237Z,98407.58
2018-04-06T13:03:39.492Z,98407.98
2018-04-06T13:06:07.816Z,98404.36
2018-04-06T13:08:36.089Z,98399.25
2018-04-06T13:11:05.142Z,98396.62
2018-04-06T13:13:33.396Z,98392.27
2018-04-06T13:16:01.766Z,98389.70
2018-04-06T13:18:30.065Z,98386.81
2018-04-06T13:20:58.353Z,98390.02
2018-04-06T13:23:26.636Z,98385.23
2018-04-06T13:25:54.974Z,98379.66
2018-04-06T13:28:23.257Z,98382.12
2018-04-06T13:30:51.536Z,98376.37
2018-04-06T13:33:19.813Z,98366.52
2018-04-06T13:35:48.096Z,98359.27
2018-04-06T13:38:16.354Z,98361.66
2018-04-06T13:40:44.725Z,98357.56
2018-04-06T13:43:12.983Z,98353.63
2018-04-06T13:45:41.286Z,98346.05
2018-04-06T13:48:09.548Z,98344.41
2018-04-06T13:50:37.822Z,98334.73
2018-04-06T13:53:06.096Z,98336.25
2018-04-06T13:55:34.356Z,98333.14
2018-04-06T13:58:03.409Z,98322.69
2018-04-06T14:00:31.673Z,98328.03
2018-04-06T14:02:59.948Z,98319.22
2018-04-06T14:05:28.235Z,98315.78
2018-04-06T14:07:56.529Z,98316.25
2018-04-06T14:10:24.808Z,98311.54
2018-04-06T14:12:54.568Z,98308.77
2018-04-06T14:15:22.828Z,98308.17
2018-04-06T14:17:51.108Z,98302.94
2018-04-06T14:20:19.373Z,98293.14
2018-04-06T14:22:48.422Z,98289.43
2018-04-06T14:25:16.709Z,98288.20
2018-04-06T14:27:44.969Z,98282.75
2018-04-06T14:30:13.249Z,98281.70
2018-04-06T14:32:41.514Z,98283.15
2018-04-06T14:35:09.802Z,98275.99
2018-04-06T14:37:38.146Z,98275.28
2018-04-06T14:40:06.368Z,98279.30
2018-04-06T14:42:34.628Z,98268.49
2018-04-06T14:45:02.893Z,98272.97
2018-04-06T14:47:31.195Z,98268.02
2018-04-06T14:49:59.533Z,98271.34
2018-04-06T14:52:27.804Z,98267.65
2018-04-06T14:54:56.078Z,98271.98
2018-04-06T14:57:24.359Z,98265.09
2018-04-06T14:59:52.705Z,98263.52
2018-04-06T15:02:21.733Z,98255.73
2018-04-06T15:04:50.016Z,98253.89
2018-04-06T15:07:18.307Z,98243.12
2018-04-06T15:09:46.576Z,98242.41
2018-04-06T15:12:14.837Z,98249.80
2018-04-06T15:14:43.113Z,98249.48
2018-04-06T15:17:11.405Z,98247.19
2018-04-06T15:19:39.677Z,98250.25
2018-04-06T15:22:07.960Z,98259.48
2018-04-06T15:24:36.295Z,98256.95
2018-04-06T15:27:04.512Z,98247.05
2018-04-06T15:29:32.792Z,98247.14
2018-04-06T15:32:01.069Z,98246.76
2018-04-06T15:34:29.345Z,98254.63
2018-04-06T15:36:57.631Z,98251.14
2018-04-06T15:39:25.908Z,98249.03
2018-04-06T15:41:54.194Z,98236.28
2018-04-06T15:44:22.474Z,98230.59
2018-04-06T15:46:50.769Z,98227.11
2018-04-06T15:49:19.796Z,98218.63
2018-04-06T15:51:48.074Z,98218.81
2018-04-06T15:54:16.364Z,98216.02
2018-04-06T15:56:45.487Z,98205.16
2018-04-06T15:59:13.773Z,98220.08
2018-04-06T16:01:42.042Z,98207.20
2018-04-06T16:04:10.300Z,98208.74
2018-04-06T16:06:38.576Z,98212.70
2018-04-06T16:09:06.850Z,98214.66
2018-04-06T16:11:35.143Z,98208.70
2018-04-06T16:14:03.405Z,98204.53
2018-04-06T16:16:31.681Z,98200.75
2018-04-06T16:18:59.962Z,98198.54
2018-04-06T16:21:28.228Z,98203.16
2018-04-06T16:23:56.500Z,98203.58
2018-04-06T16:26:24.793Z,98201.34
2018-04-06T16:28:53.062Z,98197.25
2018-04-06T16:31:21.353Z,98193.84
2018-04-06T16:33:49.618Z,98198.25
2018-04-06T16:36:17.882Z,98185.20
2018-04-06T16:38:46.152Z,98188.09
2018-04-06T16:41:14.450Z,98183.28
2018-04-06T16:43:42.799Z,98177.50
2018-04-06T16:46:11.065Z,98174.20
2018-04-06T16:48:39.354Z,98170.99
2018-04-06T16:51:07.649Z,98168.37
2018-04-06T16:53:35.930Z,98171.36
2018-04-06T16:56:04.220Z,98176.14
2018-04-06T16:58:33.244Z,98188.88
2018-04-06T17:01:02.305Z,98185.13
2018-04-06T17:03:30.562Z,98192.67
2018-04-06T17:05:58.825Z,98186.58
2018-04-06T17:08:27.101Z,98185.56
2018-04-06T17:10:55.372Z,98187.16
2018-04-06T17:13:23.660Z,98182.81
2018-04-06T17:15:51.930Z,98185.17
2018-04-06T17:18:20.193Z,98187.27
2018-04-06T17:20:48.477Z,98190.00
2018-04-06T17:23:16.741Z,98191.58
2018-04-06T17:25:45.132Z,98193.28
2018-04-06T17:28:13.395Z,98189.95
2018-04-06T17:30:41.665Z,98183.62
2018-04-06T17:33:09.940Z,98185.09
2018-04-06T17:35:38.218Z,98188.77
2018-04-06T17:38:06.508Z,98189.84
2018-04-06T17:40:34.770Z,98187.24
2018-04-06T17:43:03.057Z,98185.89
2018-04-06T17:45:31.374Z,98184.94
2018-04-06T17:47:59.636Z,98188.65
2018-04-06T17:50:27.925Z,98185.44
2018-04-06T17:52:56.185Z,98189.00
2018-04-06T17:55:24.465Z,98188.41
2018-04-06T17:57:52.768Z,98194.05
2018-04-06T18:00:21.022Z,98188.52
2018-04-06T18:02:49.319Z,98189.83
2018-04-06T18:05:17.608Z,98191.12
2018-04-06T18:07:46.648Z,98189.33
2018-04-06T18:10:14.928Z,98200.23
2018-04-06T18:12:43.196Z,98205.70
2018-04-06T18:15:11.477Z,98196.77
2018-04-06T18:17:39.769Z,98203.80
2018-04-06T18:20:08.050Z,98204.46
2018-04-06T18:22:36.320Z,98209.20
2018-04-06T18:25:04.592Z,98209.66
2018-04-06T18:27:32.880Z,98212.34
2018-04-06T18:30:01.210Z,98209.61
2018-04-06T18:32:29.773Z,98215.72
2018-04-06T18:34:58.398Z,98218.25
2018-04-06T18:37:27.185Z,98222.13
2018-04-06T18:39:57.003Z,98222.56
2018-04-06T18:42:26.608Z,98219.80
2018-04-06T18:44:57.477Z,98230.22
2018-04-06T18:47:27.518Z,98226.35
2018-04-06T18:49:57.528Z,98229.81
2018-04-06T18:52:27.522Z,98226.46
2018-04-06T18:54:57.332Z,98224.64
2018-04-06T18:57:27.313Z,98225.92
2018-04-06T18:59:57.896Z,98227.30
2018-04-06T19:02:27.816Z,98215.94
2018-04-06T19:04:57.887Z,98217.64
2018-04-06T19:07:27.917Z,98217.24
2018-04-06T19:09:57.879Z,98217.67
2018-04-06T19:12:27.623Z,98215.55
2018-04-06T19:14:58.668Z,98221.91
2018-04-06T19:17:28.515Z,98224.05
2018-04-06T19:19:58.425Z,98220.20
2018-04-06T19:22:28.403Z,98211.68
2018-04-06T19:24:58.561Z,98219.34
2018-04-06T19:27:28.684Z,98219.78
2018-04-06T19:29:58.796Z,98215.95
2018-04-06T19:32:28.740Z,98216.38
2018-04-06T19:34:58.812Z,98212.13
2018-04-06T19:37:28.798Z,98219.77
2018-04-06T19:40:00.363Z,98217.20
2018-04-06T19:42:31.084Z,98220.56
2018-04-06T19:45:01.935Z,98219.74
2018-04-06T19:47:31.833Z,98217.58
2018-04-06T19:50:02.770Z,98211.88
2018-04-06T19:52:32.919Z,98215.80
2018-04-06T19:55:03.061Z,98215.38
2018-04-06T19:57:33.036Z,98211.56
2018-04-06T20:00:04.180Z,98209.45
2018-04-06T20:02:35.353Z,98217.52
2018-04-06T20:05:05.314Z,98214.42
2018-04-06T20:07:35.150Z,98211.86
2018-04-06T20:10:05.960Z,98210.62
2018-04-06T20:12:36.025Z,98207.03
2018-04-06T20:15:06.844Z,98215.80
2018-04-06T20:17:37.603Z,98203.96
2018-04-06T20:20:08.589Z,98202.67
2018-04-06T20:22:38.630Z,98196.70
2018-04-06T20:25:09.110Z,98198.78
2018-04-06T20:27:39.443Z,98201.69
2018-04-06T20:30:09.317Z,98201.69
2018-04-06T20:32:39.306Z,98198.89
2018-04-06T20:35:10.693Z,98198.11
2018-04-06T20:37:40.909Z,98201.87
2018-04-06T20:40:11.572Z,98202.72
2018-04-06T20:42:41.666Z,98194.98
2018-04-06T20:45:11.294Z,98194.88
2018-04-06T20:47:41.563Z,98194.25
2018-04-06T20:50:11.078Z,98187.31
2018-04-06T20:52:40.507Z,98188.20
2018-04-06T20:55:09.954Z,98183.70
2018-04-06T20:57:40.139Z,98186.28
2018-04-06T21:00:10.227Z,98179.20
2018-04-06T21:02:41.190Z,98181.83
2018-04-06T21:05:10.999Z,98180.09
2018-04-06T21:07:41.075Z,98178.78
2018-04-06T21:10:11.821Z,98180.86
2018-04-06T21:12:42.660Z,98179.52
2018-04-06T21:15:13.889Z,98172.37
2018-04-06T21:17:43.968Z,98175.84
2018-04-06T21:20:13.605Z,98174.95
2018-04-06T21:22:43.731Z,98167.70
2018-04-06T21:25:13.744Z,98168.51
2018-04-06T21:27:43.883Z,98157.05
2018-04-06T21:30:13.472Z,98156.38
2018-04-06T21:32:43.380Z,98160.62
2018-04-06T21:35:12.977Z,98158.85
2018-04-06T21:37:41.388Z,98152.31
2018-04-06T21:40:10.007Z,98157.70
2018-04-06T21:42:38.463Z,98155.81
2018-04-06T21:45:06.940Z,98149.87
2018-04-06T21:47:35.292Z,98146.09
2018-04-06T21:50:04.581Z,98140.16
2018-04-06T21:52:33.722Z,98138.57
2018-04-06T21:55:02.038Z,98135.22
2018-04-06T21:57:30.336Z,98134.89
2018-04-06T21:59:58.591Z,98134.98
2018-04-06T22:02:26.884Z,98131.26
2018-04-06T22:04:55.891Z,98130.88
2018-04-06T22:07:24.177Z,98128.67
2018-04-06T22:09:53.200Z,98126.08
2018-04-06T22:12:21.480Z,98121.07
2018-04-06T22:14:49.755Z,98116.13
2018-04-06T22:17:18.016Z,98113.11
2018-04-06T22:19:46.295Z,98115.32
2018-04-06T22:22:14.561Z,98107.60
2018-04-06T22:24:43.614Z,98105.84
2018-04-06T22:27:11.875Z,98102.78
2018-04-06T22:29:40.148Z,98106.85
2018-04-06T22:32:08.408Z,98111.36
2018-04-06T22:34:36.679Z,98106.51
2018-04-06T22:37:04.957Z,98103.08
2018-04-06T22:39:33.229Z,98101.14
2018-04-06T22:42:01.504Z,98098.66
2018-04-06T22:44:29.748Z,98101.25
2018-04-06T22:46:58.787Z,98100.77
2018-04-06T22:49:27.064Z,98105.84
2018-04-06T22:51:55.322Z,98106.27
2018-04-06T22:54:23.612Z,98101.50
2018-04-06T22:56:51.868Z,98101.31
2018-04-06T22:59:20.140Z,98102.66
2018-04-06T23:01:48.423Z,98104.66
2018-04-06T23:04:16.703Z,98103.81
2018-04-06T23:06:44.975Z,98102.96
2018-04-06T23:09:13.249Z,98098.59
2018-04-06T23:11:41.643Z,98100.28
2018-04-06T23:14:09.888Z,98094.60
2018-04-06T23:16:38.925Z,98094.06
2018-04-06T23:19:07.177Z,98095.94
2018-04-06T23:21:35.469Z,98089.67
2018-04-06T23:24:03.720Z,98100.58
2018-04-06T23:26:32.748Z,98100.31
2018-04-06T23:29:01.010Z,98102.16
2018-04-06T23:31:29.283Z,98098.05
2018-04-06T23:33:57.533Z,98101.51
2018-04-06T23:36:26.574Z,98098.75
2018-04-06T23:38:54.826Z,98093.38
2018-04-06T23:41:23.109Z,98091.52
2018-04-06T23:43:51.381Z,98091.37
2018-04-06T23:46:19.639Z,98086.83
2018-04-06T23:48:48.655Z,98080.91
2018-04-06T23:51:16.928Z,98080.56
2018-04-06T23:53:45.205Z,98074.30
2018-04-06T23:56:13.457Z,98070.93
2018-04-06T23:58:42.473Z,98070.16
